createdAt,value
2018-07-07T00:00:23.411Z,4.60
2018-07-07T00:00:51.019Z,4.40
2018-07-07T00:01:18.608Z,4.57
2018-07-07T00:01:49.529Z,4.63
2018-07-07T00:02:17.251Z,4.20
2018-07-07T00:02:44.841Z,4.40
2018-07-07T00:03:12.419Z,5.13
2018-07-07T00:03:40.040Z,4.70
2018-07-07T00:04:07.717Z,4.20
2018-07-07T00:04:35.277Z,4.70
2018-07-07T00:05:03.146Z,4.50
2018-07-07T00:05:30.720Z,4.50
2018-07-07T00:05:58.418Z,4.20
2018-07-07T00:06:26.056Z,4.60
2018-07-07T00:06:53.871Z,4.10
2018-07-07T00:07:21.465Z,5.00
2018-07-07T00:07:50.103Z,4.47
2018-07-07T00:08:17.754Z,4.60
2018-07-07T00:08:45.425Z,4.63
2018-07-07T00:09:13.085Z,4.17
2018-07-07T00:09:40.648Z,4.80
2018-07-07T00:10:09.835Z,3.90
2018-07-07T00:10:37.594Z,4.93
2018-07-07T00:11:05.367Z,4.13
2018-07-07T00:11:33.038Z,4.47
2018-07-07T00:12:00.619Z,4.60
2018-07-07T00:12:28.793Z,4.73
2018-07-07T00:12:56.447Z,4.30
2018-07-07T00:13:24.143Z,4.53
2018-07-07T00:13:51.875Z,4.60
2018-07-07T00:14:19.453Z,4.57
2018-07-07T00:14:47.034Z,4.93
2018-07-07T00:15:17.618Z,4.50
2018-07-07T00:15:45.233Z,4.67
2018-07-07T00:16:12.880Z,4.73
2018-07-07T00:16:40.584Z,4.73
2018-07-07T00:17:08.774Z,4.57
2018-07-07T00:17:36.360Z,4.53
2018-07-07T00:18:04.263Z,5.07
2018-07-07T00:18:31.835Z,4.43
2018-07-07T00:18:59.416Z,4.37
2018-07-07T00:19:27.081Z,4.20
2018-07-07T00:19:54.721Z,4.33
2018-07-07T00:20:22.306Z,4.80
2018-07-07T00:20:50.028Z,4.03
2018-07-07T00:21:17.604Z,4.43
2018-07-07T00:21:45.514Z,4.23
2018-07-07T00:22:13.134Z,4.73
2018-07-07T00:22:40.837Z,4.33
2018-07-07T00:23:08.985Z,4.50
2018-07-07T00:23:36.776Z,4.07
2018-07-07T00:24:04.667Z,4.40
2018-07-07T00:24:32.295Z,4.33
2018-07-07T00:24:59.872Z,4.80
2018-07-07T00:25:27.442Z,5.10
2018-07-07T00:25:54.965Z,4.23
2018-07-07T00:26:22.539Z,4.40
2018-07-07T00:26:50.182Z,4.77
2018-07-07T00:27:17.840Z,4.57
2018-07-07T00:27:46.139Z,4.90
2018-07-07T00:28:13.696Z,4.47
2018-07-07T00:28:41.261Z,4.50
2018-07-07T00:29:09.113Z,5.00
2018-07-07T00:29:36.739Z,4.80
2018-07-07T00:30:04.439Z,4.53
2018-07-07T00:30:32.033Z,4.87
2018-07-07T00:30:59.809Z,4.87
2018-07-07T00:31:27.415Z,4.60
2018-07-07T00:31:54.988Z,4.27
2018-07-07T00:32:22.560Z,4.47
2018-07-07T00:32:50.151Z,4.97
2018-07-07T00:33:17.759Z,4.43
2018-07-07T00:33:45.352Z,4.50
2018-07-07T00:34:12.972Z,4.17
2018-07-07T00:34:40.552Z,4.23
2018-07-07T00:35:08.252Z,4.30
2018-07-07T00:35:35.956Z,4.30
2018-07-07T00:36:03.608Z,4.97
2018-07-07T00:36:31.215Z,4.87
2018-07-07T00:36:58.838Z,4.83
2018-07-07T00:37:26.437Z,4.20
2018-07-07T00:37:54.020Z,4.73
2018-07-07T00:38:21.640Z,4.23
2018-07-07T00:38:49.341Z,5.23
2018-07-07T00:39:18.030Z,4.53
2018-07-07T00:39:45.765Z,4.37
2018-07-07T00:40:13.452Z,4.00
2018-07-07T00:40:41.055Z,4.47
2018-07-07T00:41:08.639Z,4.47
2018-07-07T00:41:36.306Z,4.10
2018-07-07T00:42:04.009Z,4.43
2018-07-07T00:42:31.604Z,4.57
2018-07-07T00:42:59.225Z,4.60
2018-07-07T00:43:26.808Z,4.40
2018-07-07T00:43:54.375Z,4.07
2018-07-07T00:44:22.084Z,4.13
2018-07-07T00:44:49.683Z,4.33
2018-07-07T00:45:18.329Z,3.97
2018-07-07T00:45:46.103Z,4.30
2018-07-07T00:46:13.704Z,4.43
2018-07-07T00:46:41.927Z,4.03
2018-07-07T00:47:09.556Z,4.40
2018-07-07T00:47:37.204Z,4.30
2018-07-07T00:48:05.046Z,4.20
2018-07-07T00:48:32.621Z,3.90
2018-07-07T00:49:00.232Z,3.73
2018-07-07T00:49:27.872Z,4.37
2018-07-07T00:49:55.399Z,4.00
2018-07-07T00:50:23.042Z,4.00
2018-07-07T00:50:50.716Z,4.33
2018-07-07T00:51:18.305Z,4.43
2018-07-07T00:51:46.089Z,4.20
2018-07-07T00:52:13.700Z,4.37
2018-07-07T00:52:41.564Z,4.47
2018-07-07T00:53:09.247Z,3.90
2018-07-07T00:53:36.893Z,4.40
2018-07-07T00:54:04.577Z,4.63
2018-07-07T00:54:32.281Z,3.90
2018-07-07T00:54:59.925Z,4.30
2018-07-07T00:55:27.792Z,3.80
2018-07-07T00:55:55.375Z,4.40
2018-07-07T00:56:23.017Z,4.33
2018-07-07T00:56:50.604Z,3.97
2018-07-07T00:57:18.359Z,4.47
2018-07-07T00:57:46.001Z,4.53
2018-07-07T00:58:13.639Z,4.40
2018-07-07T01:03:27.316Z,3.80
2018-07-07T01:03:54.888Z,4.10
2018-07-07T01:04:22.496Z,4.23
2018-07-07T01:04:52.465Z,4.27
2018-07-07T01:05:31.391Z,4.20
2018-07-07T01:05:59.199Z,3.80
2018-07-07T01:06:28.168Z,4.50
2018-07-07T01:06:55.775Z,4.40
2018-07-07T01:07:23.679Z,4.23
2018-07-07T01:07:51.669Z,4.30
2018-07-07T01:08:19.245Z,4.60
2018-07-07T01:08:46.989Z,3.90
2018-07-07T01:09:14.998Z,4.10
2018-07-07T01:09:42.576Z,4.17
2018-07-07T01:10:10.120Z,4.30
2018-07-07T01:10:37.783Z,4.17
2018-07-07T01:11:05.395Z,3.83
2018-07-07T01:11:32.972Z,4.13
2018-07-07T01:12:00.564Z,4.13
2018-07-07T01:12:28.133Z,4.47
2018-07-07T01:12:55.728Z,4.57
2018-07-07T01:13:23.407Z,4.30
2018-07-07T01:13:51.070Z,4.73
2018-07-07T01:14:18.657Z,4.33
2018-07-07T01:14:47.813Z,4.37
2018-07-07T01:15:15.388Z,4.40
2018-07-07T01:15:43.045Z,4.27
2018-07-07T01:16:10.651Z,4.10
2018-07-07T01:16:38.276Z,3.73
2018-07-07T01:17:05.925Z,4.40
2018-07-07T01:17:33.600Z,4.20
2018-07-07T01:18:01.176Z,4.23
2018-07-07T01:18:28.761Z,4.10
2018-07-07T01:18:56.453Z,3.87
2018-07-07T01:19:24.102Z,4.77
2018-07-07T01:19:51.736Z,4.50
2018-07-07T01:20:19.588Z,4.37
2018-07-07T01:20:47.797Z,4.00
2018-07-07T01:21:15.376Z,4.23
2018-07-07T01:21:42.928Z,4.17
2018-07-07T01:22:11.815Z,3.93
2018-07-07T01:22:39.501Z,4.00
2018-07-07T01:23:07.172Z,4.43
2018-07-07T01:23:34.797Z,4.10
2018-07-07T01:24:02.472Z,3.87
2018-07-07T01:24:30.183Z,4.10
2018-07-07T01:24:57.745Z,4.17
2018-07-07T01:25:25.756Z,3.57
2018-07-07T01:25:53.259Z,3.70
2018-07-07T01:26:20.855Z,3.60
2018-07-07T01:26:48.435Z,4.30
2018-07-07T01:27:16.017Z,3.97
2018-07-07T01:27:43.596Z,4.00
2018-07-07T01:28:11.210Z,3.97
2018-07-07T01:28:39.059Z,4.13
2018-07-07T01:29:06.695Z,4.20
2018-07-07T01:29:34.311Z,4.37
2018-07-07T01:30:01.964Z,4.17
2018-07-07T01:30:29.591Z,3.53
2018-07-07T01:30:57.223Z,3.63
2018-07-07T01:31:24.815Z,3.93
2018-07-07T01:31:52.460Z,4.07
2018-07-07T01:32:20.086Z,4.40
2018-07-07T01:32:47.684Z,4.20
2018-07-07T01:33:15.283Z,4.03
2018-07-07T01:33:42.839Z,4.10
2018-07-07T01:34:10.540Z,3.60
2018-07-07T01:34:38.459Z,4.23
2018-07-07T01:35:06.208Z,4.27
2018-07-07T01:35:33.833Z,4.00
2018-07-07T01:36:01.395Z,3.67
2018-07-07T01:36:29.048Z,4.03
2018-07-07T01:36:56.797Z,4.10
2018-07-07T01:37:24.432Z,3.77
2018-07-07T01:37:52.151Z,3.90
2018-07-07T01:38:19.778Z,3.93
2018-07-07T01:38:47.484Z,3.80
2018-07-07T01:39:15.267Z,4.03
2018-07-07T01:39:42.885Z,3.67
2018-07-07T01:40:10.494Z,3.40
2018-07-07T01:40:38.192Z,4.03
2018-07-07T01:41:05.807Z,3.73
2018-07-07T01:41:33.408Z,3.67
2018-07-07T01:42:01.087Z,3.73
2018-07-07T01:42:28.662Z,4.03
2018-07-07T01:42:56.421Z,3.90
2018-07-07T01:43:24.222Z,4.10
2018-07-07T01:43:51.780Z,4.00
2018-07-07T01:44:19.343Z,4.00
2018-07-07T01:44:46.947Z,4.00
2018-07-07T01:45:14.496Z,3.70
2018-07-07T01:45:42.102Z,4.03
2018-07-07T01:46:09.583Z,4.10
2018-07-07T01:46:37.291Z,3.73
2018-07-07T01:47:04.897Z,3.50
2018-07-07T01:47:32.490Z,3.63
2018-07-07T01:48:00.049Z,3.90
2018-07-07T01:48:27.612Z,3.90
2018-07-07T01:48:55.200Z,4.10
2018-07-07T01:49:22.812Z,3.53
2018-07-07T01:49:50.430Z,3.57
2018-07-07T01:50:18.074Z,3.73
2018-07-07T01:50:45.696Z,3.77
2018-07-07T01:51:13.276Z,3.97
2018-07-07T01:51:40.931Z,3.90
2018-07-07T01:52:08.523Z,3.50
2018-07-07T01:52:36.090Z,3.93
2018-07-07T01:53:03.739Z,3.70
2018-07-07T01:53:31.308Z,3.63
2018-07-07T01:53:58.884Z,3.80
2018-07-07T01:54:26.411Z,3.63
2018-07-07T01:54:53.979Z,3.40
2018-07-07T01:55:21.537Z,3.50
2018-07-07T01:55:49.144Z,3.33
2018-07-07T01:56:16.656Z,3.63
2018-07-07T01:56:44.244Z,3.80
2018-07-07T01:57:11.991Z,3.47
2018-07-07T01:57:39.588Z,3.97
2018-07-07T01:58:07.516Z,3.77
2018-07-07T01:58:35.097Z,3.43
2018-07-07T01:59:02.745Z,3.53
2018-07-07T01:59:30.334Z,3.47
2018-07-07T01:59:57.945Z,2.90
2018-07-07T02:00:25.855Z,3.40
2018-07-07T02:00:53.547Z,3.13
2018-07-07T02:01:21.131Z,3.83
2018-07-07T02:01:48.724Z,3.30
2018-07-07T02:02:31.188Z,4.03
2018-07-07T02:02:58.794Z,3.57
2018-07-07T02:03:26.407Z,3.30
2018-07-07T02:03:54.049Z,3.33
2018-07-07T02:04:21.653Z,3.60
2018-07-07T02:04:49.207Z,3.10
2018-07-07T02:05:16.898Z,3.70
2018-07-07T02:05:44.464Z,3.13
2018-07-07T02:06:12.013Z,3.20
2018-07-07T02:06:39.649Z,3.00
2018-07-07T02:07:07.309Z,3.30
2018-07-07T02:07:34.892Z,3.20
2018-07-07T02:08:02.511Z,2.87
2018-07-07T02:08:30.160Z,3.10
2018-07-07T02:08:57.912Z,3.50
2018-07-07T02:09:25.542Z,3.53
2018-07-07T02:09:53.171Z,3.20
2018-07-07T02:10:20.806Z,3.07
2018-07-07T02:10:48.344Z,2.77
2018-07-07T02:11:15.920Z,3.67
2018-07-07T02:11:43.728Z,3.40
2018-07-07T02:12:11.335Z,2.70
2018-07-07T02:12:38.982Z,3.33
2018-07-07T02:13:06.571Z,2.80
2018-07-07T02:13:34.136Z,2.73
2018-07-07T02:14:01.729Z,2.77
2018-07-07T02:14:29.384Z,2.83
2018-07-07T02:14:57.124Z,2.77
2018-07-07T02:15:24.776Z,3.20
2018-07-07T02:15:52.377Z,3.40
2018-07-07T02:16:19.963Z,3.53
2018-07-07T02:16:47.520Z,3.40
2018-07-07T02:17:15.120Z,3.13
2018-07-07T02:17:42.860Z,3.80
2018-07-07T02:18:10.512Z,3.13
2018-07-07T02:18:38.116Z,3.17
2018-07-07T02:19:05.751Z,3.37
2018-07-07T02:19:33.331Z,3.10
2018-07-07T02:20:00.973Z,2.90
2018-07-07T02:20:28.699Z,3.23
2018-07-07T02:20:56.305Z,2.97
2018-07-07T02:21:23.904Z,3.10
2018-07-07T02:21:51.558Z,3.00
2018-07-07T02:22:24.038Z,2.60
2018-07-07T02:22:51.917Z,3.03
2018-07-07T02:23:19.471Z,3.27
2018-07-07T02:23:47.112Z,3.00
2018-07-07T02:24:14.711Z,3.10
2018-07-07T02:24:42.418Z,2.80
2018-07-07T02:25:10.009Z,3.00
2018-07-07T02:25:37.799Z,2.60
2018-07-07T02:26:05.651Z,2.87
2018-07-07T02:26:33.230Z,2.90
2018-07-07T02:27:00.830Z,3.10
2018-07-07T02:27:28.425Z,3.03
2018-07-07T02:27:56.048Z,2.57
2018-07-07T02:28:23.840Z,2.80
2018-07-07T02:28:51.490Z,3.00
2018-07-07T02:29:19.064Z,2.77
2018-07-07T02:29:47.182Z,3.03
2018-07-07T02:30:14.787Z,3.03
2018-07-07T02:30:42.747Z,2.70
2018-07-07T02:31:10.496Z,2.67
2018-07-07T02:31:38.126Z,2.73
2018-07-07T02:32:06.033Z,2.60
2018-07-07T02:32:33.635Z,2.80
2018-07-07T02:33:01.662Z,3.17
2018-07-07T02:33:29.904Z,2.33
2018-07-07T02:33:57.552Z,2.60
2018-07-07T02:34:25.116Z,3.33
2018-07-07T02:34:52.647Z,2.53
2018-07-07T02:35:20.311Z,3.00
2018-07-07T02:35:47.935Z,2.33
2018-07-07T02:36:15.706Z,2.80
2018-07-07T02:36:43.328Z,2.43
2018-07-07T02:37:11.149Z,2.70
2018-07-07T02:37:38.760Z,3.00
2018-07-07T02:38:06.408Z,2.67
2018-07-07T02:38:34.008Z,2.47
2018-07-07T02:39:01.678Z,3.17
2018-07-07T02:39:29.325Z,2.70
2018-07-07T02:39:56.876Z,2.77
2018-07-07T02:40:24.508Z,2.77
2018-07-07T02:40:52.060Z,2.80
2018-07-07T02:41:19.767Z,2.80
2018-07-07T02:41:47.329Z,2.70
2018-07-07T02:42:14.875Z,2.97
2018-07-07T02:42:42.458Z,2.83
2018-07-07T02:43:10.010Z,2.40
2018-07-07T02:43:37.642Z,2.83
2018-07-07T02:44:05.302Z,2.57
2018-07-07T02:44:33.048Z,3.00
2018-07-07T02:45:00.687Z,2.80
2018-07-07T02:45:28.252Z,2.43
2018-07-07T02:45:55.835Z,2.43
2018-07-07T02:46:23.468Z,2.80
2018-07-07T02:46:51.108Z,2.80
2018-07-07T02:47:18.551Z,2.20
2018-07-07T02:47:46.135Z,2.53
2018-07-07T02:48:13.707Z,2.50
2018-07-07T02:48:41.333Z,2.70
2018-07-07T02:49:08.917Z,2.63
2018-07-07T02:49:36.492Z,2.80
2018-07-07T02:50:04.112Z,2.43
2018-07-07T02:50:31.726Z,2.53
2018-07-07T02:50:59.347Z,2.73
2018-07-07T02:51:26.975Z,2.57
2018-07-07T02:51:54.463Z,2.33
2018-07-07T02:52:21.999Z,2.60
2018-07-07T02:52:49.514Z,2.50
2018-07-07T02:53:17.081Z,2.93
2018-07-07T02:53:44.744Z,2.70
2018-07-07T02:54:12.763Z,2.73
2018-07-07T02:54:40.354Z,2.73
2018-07-07T02:55:08.166Z,2.83
2018-07-07T02:55:35.776Z,2.57
2018-07-07T02:56:03.424Z,2.60
2018-07-07T02:56:31.005Z,2.57
2018-07-07T02:56:59.113Z,2.57
2018-07-07T02:57:26.712Z,2.97
2018-07-07T02:57:54.252Z,2.63
2018-07-07T02:58:21.814Z,2.60
2018-07-07T02:58:49.411Z,2.80
2018-07-07T02:59:17.869Z,2.83
2018-07-07T02:59:45.545Z,2.33
2018-07-07T03:00:13.273Z,2.80
2018-07-07T03:00:40.865Z,2.83
2018-07-07T03:01:08.308Z,2.83
2018-07-07T03:01:35.782Z,2.30
2018-07-07T03:02:03.404Z,2.90
2018-07-07T03:02:31.003Z,2.83
2018-07-07T03:02:58.633Z,2.60
2018-07-07T03:03:26.323Z,2.47
2018-07-07T03:03:53.900Z,2.77
2018-07-07T03:04:21.487Z,2.80
2018-07-07T03:04:48.960Z,2.63
2018-07-07T03:05:16.596Z,2.80
2018-07-07T03:05:44.189Z,2.97
2018-07-07T03:06:11.948Z,2.50
2018-07-07T03:06:39.768Z,2.87
2018-07-07T03:07:07.385Z,2.70
2018-07-07T03:07:35.052Z,2.50
2018-07-07T03:08:02.648Z,3.00
2018-07-07T03:08:30.210Z,2.90
2018-07-07T03:08:57.860Z,2.37
2018-07-07T03:09:25.448Z,2.63
2018-07-07T03:09:53.019Z,3.00
2018-07-07T03:10:20.569Z,2.37
2018-07-07T03:10:48.246Z,3.07
2018-07-07T03:11:15.835Z,3.03
2018-07-07T03:11:43.510Z,2.63
2018-07-07T03:12:11.133Z,2.60
2018-07-07T03:12:38.741Z,2.83
2018-07-07T03:13:06.329Z,2.70
2018-07-07T03:13:33.941Z,2.40
2018-07-07T03:14:01.525Z,2.83
2018-07-07T03:14:30.140Z,2.57
2018-07-07T03:14:57.825Z,2.60
2018-07-07T03:15:25.425Z,3.20
2018-07-07T03:15:53.019Z,2.63
2018-07-07T03:16:20.659Z,2.67
2018-07-07T03:16:48.365Z,2.70
2018-07-07T03:17:15.991Z,2.80
2018-07-07T03:17:43.615Z,2.70
2018-07-07T03:18:11.483Z,2.57
2018-07-07T03:18:39.064Z,2.80
2018-07-07T03:19:06.697Z,2.77
2018-07-07T03:19:34.597Z,2.67
2018-07-07T03:20:03.262Z,2.43
2018-07-07T03:20:30.830Z,2.87
2018-07-07T03:20:58.490Z,2.90
2018-07-07T03:21:26.428Z,2.53
2018-07-07T03:21:53.993Z,2.90
2018-07-07T03:22:21.579Z,2.63
2018-07-07T03:22:49.148Z,2.63
2018-07-07T03:23:16.735Z,2.50
2018-07-07T03:23:44.275Z,2.63
2018-07-07T03:24:11.944Z,2.57
2018-07-07T03:24:39.539Z,2.83
2018-07-07T03:25:07.250Z,2.50
2018-07-07T03:25:34.828Z,2.73
2018-07-07T03:26:02.471Z,2.47
2018-07-07T03:26:30.042Z,2.60
2018-07-07T03:26:57.700Z,2.80
2018-07-07T03:27:25.319Z,2.70
2018-07-07T03:27:52.909Z,2.43
2018-07-07T03:28:20.461Z,2.73
2018-07-07T03:28:48.142Z,2.80
2018-07-07T03:29:15.812Z,2.40
2018-07-07T03:29:43.444Z,3.03
2018-07-07T03:30:11.084Z,2.90
2018-07-07T03:30:38.704Z,2.77
2018-07-07T03:31:06.353Z,2.43
2018-07-07T03:31:33.943Z,2.33
2018-07-07T03:32:01.520Z,2.53
2018-07-07T03:32:29.186Z,2.70
2018-07-07T03:32:56.825Z,2.27
2018-07-07T03:33:24.471Z,2.33
2018-07-07T03:33:52.024Z,2.77
2018-07-07T03:34:19.582Z,2.63
2018-07-07T03:34:47.242Z,2.40
2018-07-07T03:35:14.844Z,2.63
2018-07-07T03:35:42.479Z,2.67
2018-07-07T03:36:10.167Z,2.50
2018-07-07T03:36:37.789Z,2.70
2018-07-07T03:37:05.415Z,2.50
2018-07-07T03:37:33.091Z,2.93
2018-07-07T03:38:00.712Z,2.70
2018-07-07T03:38:28.310Z,2.13
2018-07-07T03:38:55.955Z,2.50
2018-07-07T03:39:23.575Z,2.50
2018-07-07T03:39:51.157Z,2.40
2018-07-07T03:40:18.800Z,2.40
2018-07-07T03:40:46.491Z,2.50
2018-07-07T03:41:14.673Z,2.37
2018-07-07T03:41:42.439Z,2.73
2018-07-07T03:42:10.340Z,2.80
2018-07-07T03:42:37.908Z,2.90
2018-07-07T03:43:05.587Z,2.83
2018-07-07T03:43:33.167Z,2.80
2018-07-07T03:44:00.773Z,2.50
2018-07-07T03:44:28.327Z,2.63
2018-07-07T03:44:55.940Z,2.77
2018-07-07T03:45:23.506Z,2.70
2018-07-07T03:45:51.549Z,2.50
2018-07-07T03:46:19.152Z,2.47
2018-07-07T03:46:46.739Z,2.50
2018-07-07T03:47:14.765Z,2.60
2018-07-07T03:47:42.573Z,2.37
2018-07-07T03:48:10.163Z,2.30
2018-07-07T03:48:37.839Z,2.93
2018-07-07T03:49:05.453Z,2.23
2018-07-07T03:49:32.995Z,2.83
2018-07-07T03:50:00.620Z,2.53
2018-07-07T03:50:28.192Z,2.90
2018-07-07T03:50:55.847Z,2.30
2018-07-07T03:51:23.466Z,2.40
2018-07-07T03:51:51.096Z,2.23
2018-07-07T03:52:18.683Z,2.33
2018-07-07T03:52:46.228Z,2.30
2018-07-07T03:53:14.227Z,2.67
2018-07-07T03:53:41.874Z,2.50
2018-07-07T03:54:09.465Z,2.27
2018-07-07T03:54:37.209Z,2.27
2018-07-07T03:55:04.992Z,2.40
2018-07-07T03:55:32.636Z,2.17
2018-07-07T03:56:00.208Z,2.40
2018-07-07T03:56:27.811Z,2.37
2018-07-07T03:56:55.432Z,2.33
2018-07-07T03:57:22.990Z,2.20
2018-07-07T03:57:50.700Z,2.20
2018-07-07T03:58:18.298Z,2.33
2018-07-07T03:58:46.009Z,2.00
2018-07-07T03:59:13.860Z,2.13
2018-07-07T03:59:41.734Z,2.57
2018-07-07T04:00:10.454Z,2.20
2018-07-07T04:00:38.044Z,2.40
2018-07-07T04:01:05.761Z,2.13
2018-07-07T04:01:33.324Z,2.43
2018-07-07T04:02:00.904Z,2.47
2018-07-07T04:02:28.490Z,2.60
2018-07-07T04:02:56.111Z,2.40
2018-07-07T04:03:23.760Z,2.17
2018-07-07T04:03:51.470Z,2.27
2018-07-07T04:04:19.064Z,2.53
2018-07-07T04:04:46.646Z,2.33
2018-07-07T04:05:14.549Z,2.37
2018-07-07T04:05:42.104Z,2.30
2018-07-07T04:06:09.738Z,2.20
2018-07-07T04:06:37.693Z,2.00
2018-07-07T04:07:05.857Z,2.10
2018-07-07T04:07:33.422Z,2.20
2018-07-07T04:08:01.135Z,2.30
2018-07-07T04:08:28.777Z,2.50
2018-07-07T04:08:56.359Z,2.13
2018-07-07T04:09:23.816Z,2.43
2018-07-07T04:09:51.506Z,2.27
2018-07-07T04:10:19.093Z,2.67
2018-07-07T04:10:46.762Z,2.23
2018-07-07T04:11:14.703Z,2.10
2018-07-07T04:11:42.301Z,2.30
2018-07-07T04:12:09.982Z,2.40
2018-07-07T04:12:37.530Z,2.30
2018-07-07T04:13:05.337Z,2.30
2018-07-07T04:13:33.113Z,2.43
2018-07-07T04:14:00.691Z,2.30
2018-07-07T04:14:28.281Z,2.50
2018-07-07T04:14:55.924Z,2.33
2018-07-07T04:15:23.622Z,2.67
2018-07-07T04:15:51.344Z,2.30
2018-07-07T04:16:18.943Z,2.40
2018-07-07T04:16:46.637Z,2.47
2018-07-07T04:17:15.325Z,2.83
2018-07-07T04:17:42.903Z,2.57
2018-07-07T04:18:10.484Z,2.40
2018-07-07T04:18:38.088Z,2.90
2018-07-07T04:19:05.740Z,2.70
2018-07-07T04:19:33.496Z,2.67
2018-07-07T04:20:01.174Z,2.53
2018-07-07T04:20:28.815Z,2.80
2018-07-07T04:20:56.423Z,2.23
2018-07-07T04:21:24.091Z,2.60
2018-07-07T04:21:51.826Z,1.93
2018-07-07T04:22:19.460Z,2.57
2018-07-07T04:22:47.139Z,2.47
2018-07-07T04:23:14.946Z,2.20
2018-07-07T04:23:42.644Z,2.20
2018-07-07T04:24:10.342Z,2.40
2018-07-07T04:24:38.052Z,2.60
2018-07-07T04:25:05.701Z,2.50
2018-07-07T04:25:33.346Z,2.60
2018-07-07T04:26:01.220Z,2.60
2018-07-07T04:26:28.856Z,2.40
2018-07-07T04:26:56.472Z,2.57
2018-07-07T04:27:24.063Z,2.70
2018-07-07T04:27:51.840Z,2.80
2018-07-07T04:28:19.413Z,2.40
2018-07-07T04:28:47.046Z,2.80
2018-07-07T04:29:14.648Z,2.73
2018-07-07T04:29:42.239Z,2.60
2018-07-07T04:30:09.803Z,2.30
2018-07-07T04:30:37.481Z,2.60
2018-07-07T04:31:05.115Z,2.80
2018-07-07T04:31:32.677Z,2.23
2018-07-07T04:32:00.356Z,2.40
2018-07-07T04:32:27.947Z,2.60
2018-07-07T04:32:55.519Z,2.10
2018-07-07T04:33:23.222Z,2.00
2018-07-07T04:33:50.904Z,2.70
2018-07-07T04:34:18.565Z,2.70
2018-07-07T04:34:46.115Z,2.60
2018-07-07T04:35:13.981Z,2.43
2018-07-07T04:35:41.564Z,2.47
2018-07-07T04:36:09.149Z,2.60
2018-07-07T04:36:36.771Z,2.40
2018-07-07T04:37:05.009Z,2.20
2018-07-07T04:37:32.605Z,2.20
2018-07-07T04:38:00.156Z,2.47
2018-07-07T04:38:27.791Z,2.23
2018-07-07T04:38:55.403Z,2.33
2018-07-07T04:39:23.073Z,2.13
2018-07-07T04:39:50.639Z,2.10
2018-07-07T04:40:18.279Z,2.33
2018-07-07T04:40:46.175Z,2.63
2018-07-07T04:41:13.911Z,2.30
2018-07-07T04:41:41.454Z,2.50
2018-07-07T04:42:09.041Z,2.60
2018-07-07T04:42:36.585Z,2.23
2018-07-07T04:43:04.322Z,2.53
2018-07-07T04:43:31.868Z,2.40
2018-07-07T04:43:59.516Z,2.57
2018-07-07T04:44:27.220Z,2.50
2018-07-07T04:44:54.727Z,2.40
2018-07-07T04:45:22.327Z,2.17
2018-07-07T04:45:50.103Z,2.30
2018-07-07T04:46:17.698Z,2.23
2018-07-07T04:46:45.269Z,2.30
2018-07-07T04:47:12.829Z,2.03
2018-07-07T04:47:40.437Z,1.90
2018-07-07T04:48:08.111Z,2.17
2018-07-07T04:48:35.781Z,2.00
2018-07-07T04:49:03.440Z,2.20
2018-07-07T04:49:31.004Z,2.37
2018-07-07T04:49:58.551Z,2.27
2018-07-07T04:50:26.120Z,2.23
2018-07-07T04:50:53.930Z,2.10
2018-07-07T04:51:21.542Z,2.07
2018-07-07T04:51:49.193Z,2.27
2018-07-07T04:52:17.667Z,2.03
2018-07-07T04:52:45.250Z,2.23
2018-07-07T04:53:12.880Z,2.03
2018-07-07T04:53:40.566Z,2.37
2018-07-07T04:54:08.167Z,2.53
2018-07-07T04:54:35.777Z,2.10
2018-07-07T04:55:03.448Z,2.20
2018-07-07T04:55:31.004Z,2.33
2018-07-07T04:55:58.947Z,2.30
2018-07-07T04:56:26.581Z,1.90
2018-07-07T04:56:54.555Z,2.00
2018-07-07T04:57:22.139Z,2.13
2018-07-07T04:57:49.695Z,1.97
2018-07-07T04:58:17.289Z,2.10
2018-07-07T04:58:45.158Z,2.40
2018-07-07T04:59:12.764Z,2.33
2018-07-07T04:59:40.322Z,1.90
2018-07-07T05:00:08.094Z,2.00
2018-07-07T05:00:35.757Z,2.17
2018-07-07T05:01:03.352Z,2.03
2018-07-07T05:01:31.017Z,1.87
2018-07-07T05:01:58.686Z,2.80
2018-07-07T05:02:26.286Z,1.77
2018-07-07T05:02:54.108Z,2.10
2018-07-07T05:03:21.868Z,2.00
2018-07-07T05:03:50.020Z,2.07
2018-07-07T05:04:18.687Z,1.90
2018-07-07T05:04:46.412Z,2.00
2018-07-07T05:05:14.375Z,1.57
2018-07-07T05:05:42.156Z,1.97
2018-07-07T05:06:10.110Z,1.63
2018-07-07T05:06:37.745Z,1.60
2018-07-07T05:07:05.476Z,1.63
2018-07-07T05:07:33.132Z,1.90
2018-07-07T05:08:00.769Z,1.97
2018-07-07T05:08:28.359Z,2.07
2018-07-07T05:08:55.972Z,1.90
2018-07-07T05:09:23.622Z,1.87
2018-07-07T05:09:51.234Z,1.93
2018-07-07T05:10:18.706Z,1.80
2018-07-07T05:10:46.252Z,2.00
2018-07-07T05:11:13.823Z,1.90
2018-07-07T05:11:41.409Z,1.77
2018-07-07T05:12:09.304Z,1.63
2018-07-07T05:12:36.885Z,1.40
2018-07-07T05:13:04.463Z,1.73
2018-07-07T05:13:32.095Z,1.77
2018-07-07T05:13:59.742Z,1.90
2018-07-07T05:14:27.516Z,1.70
2018-07-07T05:14:55.435Z,1.70
2018-07-07T05:15:23.060Z,1.77
2018-07-07T05:15:50.572Z,2.10
2018-07-07T05:16:18.240Z,2.20
2018-07-07T05:16:45.890Z,1.93
2018-07-07T05:17:13.492Z,2.10
2018-07-07T05:17:41.186Z,1.87
2018-07-07T05:18:08.931Z,1.80
2018-07-07T05:18:36.496Z,1.77
2018-07-07T05:19:04.122Z,2.10
2018-07-07T05:19:31.691Z,1.73
2018-07-07T05:19:59.383Z,1.87
2018-07-07T05:20:26.989Z,1.80
2018-07-07T05:20:54.567Z,1.80
2018-07-07T05:21:22.151Z,1.70
2018-07-07T05:21:49.735Z,1.83
2018-07-07T05:22:17.300Z,1.90
2018-07-07T05:22:45.006Z,1.87
2018-07-07T05:23:12.616Z,1.90
2018-07-07T05:23:40.203Z,1.73
2018-07-07T05:24:07.825Z,1.80
2018-07-07T05:24:35.622Z,1.60
2018-07-07T05:25:05.564Z,1.83
2018-07-07T05:25:33.134Z,1.90
2018-07-07T05:26:01.144Z,2.00
2018-07-07T05:26:29.194Z,1.87
2018-07-07T05:26:57.254Z,2.23
2018-07-07T05:27:25.059Z,1.90
2018-07-07T05:27:52.682Z,1.67
2018-07-07T05:28:20.316Z,1.80
2018-07-07T05:28:48.050Z,1.80
2018-07-07T05:29:15.868Z,1.70
2018-07-07T05:29:43.727Z,2.10
2018-07-07T05:30:11.319Z,2.10
2018-07-07T05:30:39.011Z,2.00
2018-07-07T05:31:07.241Z,2.00
2018-07-07T05:31:34.747Z,1.83
2018-07-07T05:32:02.491Z,2.07
2018-07-07T05:32:30.060Z,2.00
2018-07-07T05:32:57.830Z,2.10
2018-07-07T05:33:25.824Z,1.70
2018-07-07T05:33:53.371Z,1.80
2018-07-07T05:34:20.960Z,1.90
2018-07-07T05:34:48.560Z,2.00
2018-07-07T05:35:16.292Z,1.93
2018-07-07T05:35:43.934Z,2.00
2018-07-07T05:36:11.522Z,1.50
2018-07-07T05:36:39.083Z,1.60
2018-07-07T05:37:06.684Z,2.27
2018-07-07T05:37:34.359Z,2.27
2018-07-07T05:38:01.977Z,2.40
2018-07-07T05:38:29.590Z,1.80
2018-07-07T05:38:57.265Z,1.80
2018-07-07T05:39:24.820Z,2.10
2018-07-07T05:39:52.443Z,1.83
2018-07-07T05:40:20.008Z,2.00
2018-07-07T05:40:47.593Z,1.60
2018-07-07T05:41:15.315Z,1.93
2018-07-07T05:41:42.947Z,1.90
2018-07-07T05:42:10.527Z,2.07
2018-07-07T05:42:38.116Z,2.33
2018-07-07T05:43:05.776Z,2.00
2018-07-07T05:43:33.449Z,2.07
2018-07-07T05:44:01.025Z,2.10
2018-07-07T05:44:28.673Z,1.90
2018-07-07T05:44:56.369Z,2.60
2018-07-07T05:45:23.914Z,2.30
2018-07-07T05:45:51.547Z,2.00
2018-07-07T05:46:19.096Z,2.10
2018-07-07T05:46:46.676Z,2.00
2018-07-07T05:47:14.648Z,2.13
2018-07-07T05:47:42.261Z,2.20
2018-07-07T05:48:10.261Z,2.27
2018-07-07T05:48:37.836Z,1.97
2018-07-07T05:49:05.565Z,2.20
2018-07-07T05:49:33.199Z,2.13
2018-07-07T05:50:00.883Z,2.13
2018-07-07T05:50:28.705Z,1.90
2018-07-07T05:50:56.322Z,2.17
2018-07-07T05:51:23.881Z,2.00
2018-07-07T05:51:51.448Z,2.47
2018-07-07T05:52:19.021Z,2.57
2018-07-07T05:52:46.564Z,2.03
2018-07-07T05:53:14.135Z,2.23
2018-07-07T05:53:41.820Z,1.90
2018-07-07T05:54:09.473Z,1.70
2018-07-07T05:54:37.051Z,1.90
2018-07-07T05:55:04.803Z,2.00
2018-07-07T05:55:32.390Z,2.10
2018-07-07T05:56:00.009Z,2.20
2018-07-07T05:56:27.615Z,2.20
2018-07-07T05:56:55.187Z,2.10
2018-07-07T05:57:22.941Z,1.70
2018-07-07T05:57:50.387Z,2.10
2018-07-07T05:58:18.037Z,2.10
2018-07-07T05:58:45.604Z,2.20
2018-07-07T05:59:13.038Z,2.50
2018-07-07T05:59:40.572Z,2.07
2018-07-07T06:00:15.442Z,1.90
2018-07-07T06:00:43.085Z,2.00
2018-07-07T06:01:10.632Z,1.83
2018-07-07T06:01:38.229Z,1.77
2018-07-07T06:02:06.148Z,2.10
2018-07-07T06:02:34.311Z,1.93
2018-07-07T06:03:02.266Z,2.13
2018-07-07T06:03:29.828Z,1.90
2018-07-07T06:03:57.460Z,2.00
2018-07-07T06:04:25.119Z,2.07
2018-07-07T06:04:52.888Z,2.17
2018-07-07T06:05:20.640Z,2.00
2018-07-07T06:05:48.199Z,2.10
2018-07-07T06:06:15.815Z,2.07
2018-07-07T06:06:43.436Z,2.00
2018-07-07T06:07:11.089Z,2.17
2018-07-07T06:07:39.095Z,1.97
2018-07-07T06:08:07.040Z,1.93
2018-07-07T06:08:35.641Z,2.03
2018-07-07T06:09:03.884Z,1.77
2018-07-07T06:09:31.492Z,1.97
2018-07-07T06:09:59.196Z,2.00
2018-07-07T06:10:26.783Z,1.90
2018-07-07T06:10:54.436Z,1.97
2018-07-07T06:11:21.964Z,2.17
2018-07-07T06:11:49.546Z,1.87
2018-07-07T06:12:17.128Z,2.13
2018-07-07T06:12:44.712Z,1.83
2018-07-07T06:13:12.302Z,1.77
2018-07-07T06:13:39.943Z,1.90
2018-07-07T06:14:07.584Z,1.93